Time;durP1;ratioP1;P1;durP2;ratioP2;P2;SDS_P1;SDS_P2;PMS_P1;PMS_P2;Temp;Humidity;BMP_temperature;BMP_pressure;BME280_temperature;BME280_humidity;BME280_pressure;Samples;Min_cycle;Max_cycle;Signal;HPM_P1;HPM_P2
2022/04/02 00:00:44;;;;;;;2.73;1.70;;;2.10;99.90;;;;;;5054360;28;20183;-72
2022/04/02 00:03:09;;;;;;;6.30;2.33;;;2.10;99.90;;;;;;5054985;28;20170;-73
2022/04/02 00:05:35;;;;;;;4.07;2.13;;;2.10;99.90;;;;;;5071977;28;20729;-75
2022/04/02 00:08:01;;;;;;;3.40;1.83;;;2.00;99.90;;;;;;5053711;28;20288;-73
2022/04/02 00:10:26;;;;;;;5.00;2.60;;;2.00;99.90;;;;;;5072728;28;20352;-73
2022/04/02 00:12:54;;;;;;;3.03;1.90;;;2.10;99.90;;;;;;5072481;28;20201;-73
2022/04/02 00:15:20;;;;;;;3.43;2.20;;;2.10;99.90;;;;;;5054669;28;20204;-73
2022/04/02 00:17:45;;;;;;;6.27;2.50;;;2.10;99.90;;;;;;5053871;28;20281;-73
2022/04/02 00:20:11;;;;;;;4.13;2.10;;;2.10;99.90;;;;;;5053080;28;20214;-73
2022/04/02 00:22:36;;;;;;;4.80;2.70;;;2.00;99.90;;;;;;5054333;28;20643;-73
2022/04/02 00:25:02;;;;;;;7.33;2.20;;;2.00;99.90;;;;;;5053852;28;20220;-73
2022/04/02 00:27:28;;;;;;;4.77;2.53;;;2.00;99.90;;;;;;5072461;28;20182;-73
2022/04/02 00:29:53;;;;;;;2.90;1.80;;;2.00;99.90;;;;;;5071305;28;20295;-73
2022/04/02 00:32:19;;;;;;;6.03;2.63;;;1.90;99.90;;;;;;5072109;28;20217;-73
2022/04/02 00:34:44;;;;;;;4.97;2.00;;;1.90;99.90;;;;;;5054804;28;20217;-72
2022/04/02 00:37:10;;;;;;;5.43;2.20;;;1.90;99.90;;;;;;5054310;28;20229;-73
2022/04/02 00:39:35;;;;;;;3.77;2.10;;;1.90;99.90;;;;;;5071056;28;20642;-73
2022/04/02 00:42:01;;;;;;;4.53;2.47;;;1.90;99.90;;;;;;5046100;28;20181;-73
2022/04/02 00:44:26;;;;;;;6.33;2.73;;;1.90;99.90;;;;;;5071047;28;20255;-73
2022/04/02 00:46:52;;;;;;;7.83;2.20;;;1.90;99.90;;;;;;5067400;28;20666;-73
2022/04/02 00:49:18;;;;;;;2.97;2.03;;;1.80;99.90;;;;;;5066414;28;20223;-73
2022/04/02 00:51:45;;;;;;;4.97;2.50;;;1.80;99.90;;;;;;5071171;28;20182;-73
2022/04/02 00:54:29;;;;;;;3.60;2.20;;;1.80;99.90;;;;;;5053266;28;20682;-73
2022/04/02 00:56:55;;;;;;;4.60;2.10;;;1.80;99.90;;;;;;5053300;28;20263;-73
2022/04/02 00:59:21;;;;;;;8.83;2.83;;;1.80;99.90;;;;;;5070464;28;20679;-72
2022/04/02 01:01:46;;;;;;;5.43;2.73;;;1.70;99.90;;;;;;5053182;28;20287;-72
2022/04/02 01:04:12;;;;;;;5.60;2.30;;;1.70;99.90;;;;;;5070988;28;20214;-73
2022/04/02 01:06:40;;;;;;;4.67;2.23;;;1.70;99.90;;;;;;5070933;28;20226;-73
2022/04/02 01:09:06;;;;;;;3.10;2.27;;;1.60;99.90;;;;;;5070938;28;20215;-73
2022/04/02 01:11:40;;;;;;;6.30;2.27;;;1.60;99.90;;;;;;5071085;28;20232;-73
2022/04/02 01:14:06;;;;;;;6.63;2.27;;;1.60;99.90;;;;;;5070838;28;20744;-74
2022/04/02 01:16:33;;;;;;;3.30;2.00;;;1.70;99.90;;;;;;5070756;28;20217;-73
2022/04/02 01:18:59;;;;;;;3.33;1.70;;;1.60;99.90;;;;;;5069779;28;20679;-73
2022/04/02 01:21:26;;;;;;;4.53;2.07;;;1.60;99.90;;;;;;5071271;28;20179;-73
2022/04/02 01:23:52;;;;;;;5.77;2.30;;;1.60;99.90;;;;;;5070487;28;20217;-73
2022/04/02 01:26:19;;;;;;;4.37;2.17;;;1.60;99.90;;;;;;5069864;28;20254;-75
2022/04/02 01:28:53;;;;;;;5.53;2.60;;;1.50;99.90;;;;;;5051939;28;20257;-75
2022/04/02 01:31:19;;;;;;;4.40;1.93;;;1.50;99.90;;;;;;5070643;28;20210;-72
2022/04/02 01:33:45;;;;;;;4.23;2.10;;;1.50;99.90;;;;;;5070460;28;20166;-73
2022/04/02 01:36:11;;;;;;;3.97;1.83;;;1.50;99.90;;;;;;5071182;28;20222;-73
2022/04/02 01:38:36;;;;;;;3.90;2.20;;;1.50;99.90;;;;;;5070020;28;20230;-73
2022/04/02 01:41:02;;;;;;;6.07;2.13;;;1.60;99.90;;;;;;5052436;28;20289;-73
2022/04/02 01:43:28;;;;;;;7.20;2.07;;;1.60;99.90;;;;;;5070643;28;20208;-73
2022/04/02 01:45:58;;;;;;;7.80;2.13;;;1.60;99.90;;;;;;5070620;28;20315;-73
2022/04/02 01:48:24;;;;;;;7.57;2.30;;;1.60;99.90;;;;;;5069737;28;20201;-73
2022/04/02 01:50:50;;;;;;;5.07;2.33;;;1.60;99.90;;;;;;5070604;28;20224;-73
2022/04/02 01:53:17;;;;;;;6.37;2.40;;;1.60;99.90;;;;;;5070696;28;20634;-73
2022/04/02 01:55:43;;;;;;;7.73;2.20;;;1.70;99.90;;;;;;5070332;28;20223;-73
2022/04/02 01:58:08;;;;;;;6.40;2.23;;;1.60;99.90;;;;;;5069825;28;20605;-73
2022/04/02 02:00:34;;;;;;;4.37;2.20;;;1.60;99.90;;;;;;5070694;28;20548;-74
2022/04/02 02:03:00;;;;;;;5.73;1.90;;;1.60;99.90;;;;;;5070450;28;20206;-74
2022/04/02 02:05:26;;;;;;;4.70;2.47;;;1.60;99.90;;;;;;5070239;28;20703;-73
2022/04/02 02:07:53;;;;;;;6.60;2.43;;;1.70;99.90;;;;;;5054794;28;20199;-73
2022/04/02 02:10:19;;;;;;;4.87;1.90;;;1.70;99.90;;;;;;5074238;28;20286;-73
2022/04/02 02:12:46;;;;;;;2.87;1.90;;;1.60;99.90;;;;;;5074356;28;20178;-73
2022/04/02 02:15:18;;;;;;;3.23;2.00;;;1.70;99.90;;;;;;5057026;28;20211;-73
2022/04/02 02:17:45;;;;;;;5.43;2.40;;;1.60;99.90;;;;;;5073850;28;20300;-73
2022/04/02 02:20:12;;;;;;;5.53;2.63;;;1.60;99.90;;;;;;5073595;28;20212;-74
2022/04/02 02:22:38;;;;;;;7.60;2.73;;;1.70;99.90;;;;;;5074254;28;20217;-73
2022/04/02 02:25:06;;;;;;;4.90;2.17;;;1.70;99.90;;;;;;5091509;22;20224;-74
2022/04/02 02:27:31;;;;;;;6.70;3.23;;;1.70;99.90;;;;;;5075192;28;20177;-73
2022/04/02 02:29:57;;;;;;;4.60;2.50;;;1.80;99.90;;;;;;5049871;28;20209;-74
2022/04/02 02:32:22;;;;;;;4.33;2.10;;;1.70;99.90;;;;;;5059297;28;20349;-73
2022/04/02 02:37:32;;;;;;;2.93;1.97;;;1.70;99.90;;;;;;5064572;28;20235;-74
2022/04/02 02:39:58;;;;;;;5.43;2.33;;;1.60;99.90;;;;;;5062366;28;20209;-74
2022/04/02 02:42:24;;;;;;;5.03;2.47;;;1.70;99.90;;;;;;5071343;28;20199;-73
2022/04/02 02:44:50;;;;;;;6.60;2.40;;;1.70;99.90;;;;;;5075442;28;20694;-74
2022/04/02 02:47:15;;;;;;;5.00;2.10;;;1.80;99.90;;;;;;5076304;28;20239;-74
2022/04/02 02:49:41;;;;;;;6.60;3.73;;;1.80;99.90;;;;;;5075960;28;20733;-74
2022/04/02 02:52:06;;;;;;;20.83;9.57;;;1.80;99.90;;;;;;5076632;28;20214;-74
2022/04/02 02:54:32;;;;;;;7.77;3.50;;;1.80;99.90;;;;;;5076482;28;20285;-74
2022/04/02 02:56:58;;;;;;;5.67;2.67;;;1.80;99.90;;;;;;5075614;28;20263;-73
2022/04/02 02:59:24;;;;;;;3.53;2.20;;;1.80;99.90;;;;;;5076228;28;20263;-73
2022/04/02 03:01:49;;;;;;;10.03;2.50;;;1.80;99.90;;;;;;5079069;28;20204;-74
2022/04/02 03:04:15;;;;;;;6.50;2.40;;;1.80;99.90;;;;;;5076969;28;20235;-74
2022/04/02 03:06:40;;;;;;;3.97;1.90;;;1.80;99.90;;;;;;5075921;28;20651;-74
2022/04/02 03:09:06;;;;;;;4.70;2.67;;;1.80;99.90;;;;;;5084739;28;20205;-73
2022/04/02 03:11:32;;;;;;;6.00;1.90;;;1.80;99.90;;;;;;5095468;28;20188;-74
2022/04/02 03:13:57;;;;;;;3.90;2.03;;;1.70;99.90;;;;;;5096836;28;20236;-74
2022/04/02 03:16:23;;;;;;;4.67;1.90;;;1.80;99.90;;;;;;5074807;28;20230;-74
2022/04/02 03:18:48;;;;;;;5.77;2.03;;;1.80;99.90;;;;;;5071001;28;20179;-74
2022/04/02 03:21:14;;;;;;;6.13;2.40;;;1.80;99.90;;;;;;5072728;28;20204;-74
2022/04/02 03:23:39;;;;;;;3.20;1.80;;;1.70;99.90;;;;;;5071700;28;20212;-74
2022/04/02 03:26:04;;;;;;;2.77;1.70;;;1.80;99.90;;;;;;5072862;28;20620;-74
2022/04/02 03:28:30;;;;;;;7.07;1.90;;;1.70;99.90;;;;;;5071024;28;20236;-74
2022/04/02 03:30:55;;;;;;;2.60;1.80;;;1.80;99.90;;;;;;5074640;28;20669;-74
2022/04/02 03:33:21;;;;;;;3.57;1.50;;;1.80;99.90;;;;;;5073398;28;20204;-73
2022/04/02 03:35:47;;;;;;;2.30;1.70;;;1.70;99.90;;;;;;5073356;28;20214;-74
2022/04/02 03:38:13;;;;;;;7.93;2.23;;;1.70;99.90;;;;;;5072421;28;20201;-74
2022/04/02 03:40:38;;;;;;;6.47;1.77;;;1.70;99.90;;;;;;5072670;28;20355;-74
2022/04/02 03:43:04;;;;;;;4.00;2.10;;;1.70;99.90;;;;;;5072912;28;20732;-74
2022/04/02 03:45:30;;;;;;;4.10;2.47;;;1.70;99.90;;;;;;5073210;28;20225;-74
2022/04/02 03:47:57;;;;;;;5.97;2.03;;;1.60;99.90;;;;;;5071107;28;20236;-74
2022/04/02 03:50:22;;;;;;;6.60;2.10;;;1.60;99.90;;;;;;5071810;28;20578;-73
2022/04/02 03:52:48;;;;;;;3.67;2.20;;;1.60;99.90;;;;;;5073950;28;20293;-75
2022/04/02 03:55:14;;;;;;;3.33;2.00;;;1.60;99.90;;;;;;5071354;28;20213;-74
2022/04/02 03:57:40;;;;;;;3.57;2.07;;;1.60;99.90;;;;;;5070876;28;20606;-73
2022/04/02 04:00:08;;;;;;;2.93;1.80;;;1.60;99.90;;;;;;5073111;28;20175;-74
2022/04/02 04:02:37;;;;;;;4.43;2.63;;;1.60;99.90;;;;;;5072278;28;20206;-74
2022/04/02 04:05:04;;;;;;;4.43;2.07;;;1.60;99.90;;;;;;5071129;28;20242;-74
2022/04/02 04:07:30;;;;;;;6.97;1.90;;;1.50;99.90;;;;;;5070800;28;20213;-73
2022/04/02 04:09:55;;;;;;;6.13;1.80;;;1.50;99.90;;;;;;5071644;28;20297;-74
2022/04/02 04:12:21;;;;;;;3.37;1.73;;;1.60;99.90;;;;;;5071363;28;20171;-73
2022/04/02 04:14:46;;;;;;;5.63;2.70;;;1.50;99.90;;;;;;5072301;28;20210;-74
2022/04/02 04:17:13;;;;;;;4.83;1.87;;;1.50;99.90;;;;;;5072208;28;20225;-74
2022/04/02 04:19:38;;;;;;;6.37;2.30;;;1.50;99.90;;;;;;5069794;28;20222;-74
2022/04/02 04:22:06;;;;;;;6.90;2.00;;;1.50;99.90;;;;;;5072187;28;20285;-74
2022/04/02 04:24:32;;;;;;;7.27;2.27;;;1.50;99.90;;;;;;5070662;28;20588;-73
2022/04/02 04:26:58;;;;;;;4.63;2.40;;;1.50;99.90;;;;;;5070469;28;20685;-74
2022/04/02 04:29:23;;;;;;;5.53;2.37;;;1.50;99.90;;;;;;5070313;28;20201;-73
2022/04/02 04:31:49;;;;;;;5.40;2.17;;;1.50;99.90;;;;;;5068652;28;20205;-75
2022/04/02 04:34:14;;;;;;;8.60;2.50;;;1.50;99.90;;;;;;5071880;28;20211;-74
2022/04/02 04:36:40;;;;;;;7.17;4.43;;;1.50;99.90;;;;;;5071444;28;20199;-74
2022/04/02 04:39:06;;;;;;;8.97;2.60;;;1.50;99.90;;;;;;5070170;28;20175;-74
2022/04/02 04:41:32;;;;;;;7.30;3.20;;;1.50;99.90;;;;;;5070366;28;20196;-74
2022/04/02 04:43:57;;;;;;;5.80;2.70;;;1.60;99.90;;;;;;5071812;28;20228;-73
2022/04/02 04:46:23;;;;;;;4.97;2.57;;;1.60;99.90;;;;;;5071316;28;20259;-72
2022/04/02 04:48:49;;;;;;;5.73;2.10;;;1.70;99.90;;;;;;5070527;28;20734;-75
2022/04/02 04:51:15;;;;;;;3.93;1.63;;;1.70;99.90;;;;;;5072218;28;20183;-74
2022/04/02 04:53:41;;;;;;;4.83;2.10;;;1.80;99.90;;;;;;5087605;28;20710;-73
2022/04/02 04:56:07;;;;;;;7.10;2.33;;;1.80;99.90;;;;;;5077442;28;20226;-73
2022/04/02 04:58:33;;;;;;;4.80;2.30;;;1.80;99.90;;;;;;5078745;28;20205;-73
2022/04/02 05:00:58;;;;;;;4.83;2.00;;;1.80;99.90;;;;;;5088450;28;20210;-74
2022/04/02 05:03:24;;;;;;;4.83;2.17;;;1.80;99.90;;;;;;5070563;28;20180;-74
2022/04/02 05:05:54;;;;;;;5.43;2.10;;;2.00;99.90;;;;;;5090246;28;20267;-73
2022/04/02 05:08:21;;;;;;;6.97;1.60;;;2.00;99.90;;;;;;5081203;28;20210;-73
2022/04/02 05:10:47;;;;;;;8.30;2.77;;;2.10;99.90;;;;;;5080275;28;20644;-74
2022/04/02 05:13:13;;;;;;;5.47;2.50;;;2.10;99.90;;;;;;5076317;28;20660;-73
2022/04/02 05:15:41;;;;;;;6.53;2.30;;;2.20;99.90;;;;;;5090789;28;20241;-74
2022/04/02 05:18:07;;;;;;;6.00;2.10;;;2.40;99.90;;;;;;5063337;28;20168;-73
2022/04/02 05:20:34;;;;;;;4.83;2.13;;;2.40;99.90;;;;;;5085817;28;20215;-74
2022/04/02 05:22:59;;;;;;;5.67;2.63;;;2.60;99.90;;;;;;5078148;28;20293;-74
2022/04/02 05:25:26;;;;;;;2.93;1.47;;;2.50;99.90;;;;;;5077466;28;20303;-74
2022/04/02 05:27:54;;;;;;;5.13;2.13;;;2.50;99.90;;;;;;5088624;28;20198;-73
2022/04/02 05:30:20;;;;;;;8.43;3.07;;;2.70;99.90;;;;;;5070800;28;20180;-74
2022/04/02 05:32:45;;;;;;;4.23;2.20;;;3.20;99.90;;;;;;5054578;28;20209;-74
2022/04/02 05:35:11;;;;;;;2.67;1.53;;;3.50;99.90;;;;;;5083371;28;20209;-74
2022/04/02 05:37:43;;;;;;;3.30;1.87;;;3.70;99.90;;;;;;5083205;28;20305;-74
2022/04/02 05:40:09;;;;;;;5.07;1.87;;;4.10;99.90;;;;;;5075692;28;20221;-74
2022/04/02 05:42:34;;;;;;;4.77;1.60;;;4.40;99.90;;;;;;5090984;28;20675;-74
2022/04/02 05:45:00;;;;;;;4.07;2.07;;;4.70;99.90;;;;;;5070753;28;20211;-74
2022/04/02 05:47:25;;;;;;;5.03;1.83;;;5.20;99.90;;;;;;5085379;28;20207;-73
2022/04/02 05:49:52;;;;;;;4.87;1.87;;;5.40;99.90;;;;;;5071332;28;20214;-74
2022/04/02 05:52:18;;;;;;;3.93;1.90;;;5.80;99.90;;;;;;5076575;28;20273;-74
2022/04/02 05:54:44;;;;;;;5.73;2.03;;;6.10;99.90;;;;;;5089547;28;20236;-74
2022/04/02 05:57:09;;;;;;;4.67;2.27;;;6.10;99.90;;;;;;5069928;28;20206;-74
2022/04/02 05:59:35;;;;;;;5.27;2.00;;;6.40;99.90;;;;;;5086362;28;20820;-74
2022/04/02 06:02:01;;;;;;;2.83;1.80;;;6.90;99.90;;;;;;5077562;28;20293;-74
2022/04/02 06:04:28;;;;;;;3.80;1.70;;;7.30;99.90;;;;;;5076055;28;20237;-73
2022/04/02 06:06:54;;;;;;;5.00;2.13;;;8.10;99.90;;;;;;5088232;28;20170;-73
2022/04/02 06:09:19;;;;;;;3.17;1.47;;;9.00;99.90;;;;;;5070285;28;20244;-73
2022/04/02 06:11:45;;;;;;;4.90;1.67;;;9.50;99.90;;;;;;5088300;28;20745;-74
2022/04/02 06:14:13;;;;;;;4.43;1.67;;;10.20;99.90;;;;;;5076014;28;20207;-74
2022/04/02 06:16:39;;;;;;;2.93;1.67;;;8.40;99.90;;;;;;5079034;28;20218;-73
2022/04/02 06:19:04;;;;;;;5.90;1.70;;;7.70;99.90;;;;;;5077524;28;20223;-73
2022/04/02 06:21:30;;;;;;;2.43;1.40;;;9.00;99.90;;;;;;5070660;28;20269;-74
2022/04/02 06:23:55;;;;;;;4.47;1.80;;;9.10;99.90;;;;;;5090450;28;20202;-73
2022/04/02 06:26:21;;;;;;;3.30;1.60;;;9.60;99.90;;;;;;5075957;28;20680;-73
2022/04/02 06:28:46;;;;;;;4.53;1.60;;;10.20;99.90;;;;;;5078435;28;20205;-73
2022/04/02 06:31:12;;;;;;;3.17;1.67;;;10.60;99.90;;;;;;5084701;28;20211;-73
2022/04/02 06:33:38;;;;;;;4.13;1.80;;;11.30;99.90;;;;;;5071686;28;20647;-74
2022/04/02 06:36:04;;;;;;;3.73;1.87;;;11.60;99.90;;;;;;5092640;28;20289;-73
2022/04/02 06:38:30;;;;;;;5.57;3.60;;;12.10;99.90;;;;;;5075042;28;20202;-73
2022/04/02 06:40:55;;;;;;;13.50;7.77;;;12.50;99.90;;;;;;5082207;28;20198;-74
2022/04/02 06:43:21;;;;;;;2.15;1.60;;;12.80;99.90;;;;;;5084358;28;20730;-74
2022/04/02 06:45:46;;;;;;;3.72;1.73;;;13.00;99.90;;;;;;5071983;28;20199;-74
2022/04/02 06:48:13;;;;;;;4.13;1.70;;;13.00;99.90;;;;;;5083079;28;20591;-74
2022/04/02 06:50:40;;;;;;;2.35;1.60;;;12.30;99.90;;;;;;5071962;28;20211;-74
2022/04/02 06:53:05;;;;;;;4.63;1.60;;;12.30;99.90;;;;;;5083703;28;20229;-74
2022/04/02 06:55:32;;;;;;;3.63;1.50;;;11.60;99.90;;;;;;5085835;28;20808;-74
2022/04/02 06:57:59;;;;;;;3.23;1.70;;;11.40;99.90;;;;;;5073521;28;20210;-73
2022/04/02 07:00:24;;;;;;;5.07;2.13;;;11.50;99.90;;;;;;5074945;28;20234;-73
2022/04/02 07:02:51;;;;;;;4.93;1.73;;;10.60;99.90;;;;;;5092323;28;20294;-75
2022/04/02 07:05:18;;;;;;;4.87;1.87;;;10.70;99.90;;;;;;5081188;28;20239;-73
2022/04/02 07:07:44;;;;;;;4.90;1.90;;;10.70;99.90;;;;;;5084758;28;20343;-73
2022/04/02 07:10:11;;;;;;;3.93;1.50;;;10.40;99.90;;;;;;5091092;28;20210;-72
2022/04/02 07:12:37;;;;;;;5.30;1.40;;;9.80;99.90;;;;;;5072696;28;20190;-75
2022/04/02 07:15:04;;;;;;;4.10;1.67;;;10.00;99.90;;;;;;5069586;28;20199;-73
2022/04/02 07:17:30;;;;;;;2.43;1.50;;;9.60;99.90;;;;;;5089988;28;20218;-74
2022/04/02 07:19:57;;;;;;;5.63;1.80;;;9.00;99.90;;;;;;5075912;28;20607;-73
2022/04/02 07:22:23;;;;;;;4.37;1.83;;;8.60;99.90;;;;;;5082454;28;20212;-73
2022/04/02 07:24:51;;;;;;;4.33;1.80;;;8.30;99.90;;;;;;5092894;28;20260;-74
2022/04/02 07:27:21;;;;;;;3.07;1.93;;;7.90;99.90;;;;;;5075365;28;20647;-74
2022/04/02 07:29:51;;;;;;;8.30;2.77;;;7.60;99.90;;;;;;5091263;28;20198;-74
2022/04/02 07:32:16;;;;;;;4.50;2.17;;;7.50;99.90;;;;;;5082871;28;20218;-73
2022/04/02 07:34:42;;;;;;;8.57;2.60;;;7.40;99.90;;;;;;5086155;28;20206;-74
2022/04/02 07:37:27;;;;;;;6.30;1.77;;;7.40;99.90;;;;;;5088792;28;20215;-74
2022/04/02 07:40:01;;;;;;;4.33;1.73;;;6.80;99.90;;;;;;5085034;28;20215;-74
2022/04/02 07:42:43;;;;;;;3.50;1.63;;;6.60;99.90;;;;;;5072606;28;20190;-73
2022/04/02 07:45:16;;;;;;;4.17;1.50;;;6.50;99.90;;;;;;5096409;28;20206;-74
2022/04/02 07:47:48;;;;;;;2.50;1.50;;;6.40;99.90;;;;;;5074628;28;20226;-73
2022/04/02 07:50:16;;;;;;;3.80;1.77;;;6.20;99.90;;;;;;5086088;28;20289;-73
2022/04/02 07:52:44;;;;;;;3.20;1.67;;;6.10;99.90;;;;;;5083035;28;20198;-74
2022/04/02 07:55:11;;;;;;;5.47;1.90;;;5.80;99.90;;;;;;5089262;28;20210;-73
2022/04/02 07:57:46;;;;;;;5.50;1.90;;;5.70;99.90;;;;;;5074940;28;20691;-74
2022/04/02 08:00:13;;;;;;;4.93;1.63;;;5.70;99.90;;;;;;5093580;28;20554;-74
2022/04/02 08:02:43;;;;;;;26.57;9.73;;;5.70;99.90;;;;;;5076707;28;20217;-73
2022/04/02 08:05:11;;;;;;;4.27;2.03;;;5.60;99.90;;;;;;5085717;28;20720;-73
2022/04/02 08:07:38;;;;;;;5.30;1.93;;;5.80;99.90;;;;;;5085288;28;20214;-73
2022/04/02 08:10:10;;;;;;;3.77;1.90;;;5.70;99.90;;;;;;5076852;28;20205;-74
2022/04/02 08:12:37;;;;;;;3.43;1.73;;;5.60;99.90;;;;;;5092783;28;20181;-75
2022/04/02 08:15:05;;;;;;;3.80;1.83;;;5.50;99.90;;;;;;5073351;28;20204;-74
2022/04/02 08:17:32;;;;;;;4.27;1.50;;;5.30;99.90;;;;;;5088491;28;20247;-75
2022/04/02 08:19:59;;;;;;;2.90;1.40;;;5.30;99.90;;;;;;5074604;28;20213;-73
2022/04/02 08:22:25;;;;;;;6.97;1.60;;;5.10;99.90;;;;;;5080657;28;20254;-74
2022/04/02 08:24:51;;;;;;;2.57;1.30;;;5.20;99.90;;;;;;5112731;22;20217;-74
2022/04/02 08:27:46;;;;;;;2.83;1.40;;;5.30;99.90;;;;;;5055116;28;20751;-77
2022/04/02 08:30:13;;;;;;;4.43;1.43;;;5.20;99.90;;;;;;5078389;28;20210;-76
2022/04/02 08:32:55;;;;;;;9.17;4.77;;;5.20;99.90;;;;;;5078144;28;20242;-77
2022/04/02 08:35:28;;;;;;;3.97;1.47;;;5.50;99.90;;;;;;5066053;28;20264;-76
2022/04/02 08:38:38;;;;;;;2.43;1.40;;;5.50;99.90;;;;;;5058561;28;20218;-77
2022/04/02 08:41:41;;;;;;;1.50;1.40;;;5.70;99.90;;;;;;5027770;28;20211;-78
2022/04/02 08:44:27;;;;;;;3.67;1.90;;;5.90;99.90;;;;;;5060891;28;20294;-76
2022/04/02 08:47:05;;;;;;;7.47;1.97;;;6.10;99.90;;;;;;5059970;28;20274;-81
2022/04/02 08:49:41;;;;;;;4.80;2.47;;;6.10;99.90;;;;;;5050667;28;20213;-75
2022/04/02 08:52:15;;;;;;;3.73;1.87;;;6.10;99.90;;;;;;5059015;28;20215;-77
2022/04/02 08:55:09;;;;;;;3.57;2.10;;;6.30;99.90;;;;;;5059328;28;20187;-77
2022/04/02 08:57:53;;;;;;;4.17;1.93;;;6.70;99.90;;;;;;5046662;28;20210;-76
2022/04/02 09:00:24;;;;;;;4.60;1.37;;;6.80;99.90;;;;;;5058717;28;20229;-78
2022/04/02 09:03:17;;;;;;;2.87;1.63;;;6.80;99.90;;;;;;5055512;28;20210;-76
2022/04/02 09:06:05;;;;;;;8.73;4.40;;;6.80;99.90;;;;;;5069355;28;20210;-77
2022/04/02 09:09:06;;;;;;;2.30;1.30;;;7.20;99.90;;;;;;5071304;28;20206;-77
2022/04/02 09:11:56;;;;;;;3.37;1.80;;;7.70;99.90;;;;;;5071660;28;20721;-79
2022/04/02 09:14:37;;;;;;;4.00;1.60;;;7.40;99.90;;;;;;5071118;28;20199;-76
2022/04/02 09:17:44;;;;;;;3.33;1.70;;;7.80;99.90;;;;;;5070630;28;20214;-75
2022/04/02 09:20:37;;;;;;;1.93;1.50;;;7.50;99.90;;;;;;5002405;28;20202;-78
2022/04/02 09:23:19;;;;;;;1.40;1.30;;;7.30;99.90;;;;;;4997548;28;20221;-77
2022/04/02 09:25:53;;;;;;;2.43;1.60;;;7.00;99.90;;;;;;5039965;28;20220;-77
2022/04/02 09:29:01;;;;;;;4.77;1.53;;;7.10;99.90;;;;;;5069173;28;20292;-77
2022/04/02 09:31:54;;;;;;;4.03;1.77;;;6.50;99.90;;;;;;5065701;28;20202;-77
2022/04/02 09:34:50;;;;;;;4.00;1.50;;;6.50;99.90;;;;;;5069679;28;20289;-78
2022/04/02 09:37:29;;;;;;;4.37;1.90;;;6.70;99.90;;;;;;5062728;28;20301;-77
2022/04/02 09:40:11;;;;;;;4.07;2.33;;;7.50;99.90;;;;;;5055901;28;20671;-78
2022/04/02 09:42:44;;;;;;;2.43;1.37;;;8.00;99.90;;;;;;5070944;28;20592;-77
2022/04/02 09:45:18;;;;;;;3.23;1.77;;;8.60;99.90;;;;;;5069931;28;20260;-77
2022/04/02 09:48:20;;;;;;;3.40;1.60;;;8.30;99.90;;;;;;5067285;28;20282;-78
2022/04/02 09:50:54;;;;;;;3.43;2.30;;;8.50;99.90;;;;;;5051945;28;20225;-78
2022/04/02 09:53:26;;;;;;;3.67;2.23;;;8.60;99.90;;;;;;5070805;28;20206;-78
2022/04/02 09:56:16;;;;;;;5.90;2.27;;;8.50;99.90;;;;;;5055955;28;20214;-77
2022/04/02 09:59:16;;;;;;;5.23;2.10;;;8.00;99.90;;;;;;5069805;28;20211;-77
2022/04/02 10:01:58;;;;;;;4.20;2.00;;;8.30;99.90;;;;;;5069450;28;20249;-77
2022/04/02 10:04:42;;;;;;;2.67;1.73;;;8.40;99.90;;;;;;5070645;28;20222;-76
2022/04/02 10:07:25;;;;;;;3.40;1.80;;;7.90;99.90;;;;;;5070925;28;20211;-78
2022/04/02 10:09:55;;;;;;;5.73;1.43;;;8.00;99.90;;;;;;5054912;28;20175;-78
2022/04/02 10:12:27;;;;;;;3.93;1.90;;;8.00;99.90;;;;;;5071152;28;20175;-77
2022/04/02 10:14:57;;;;;;;5.13;2.00;;;7.80;99.90;;;;;;5070435;28;20202;-78
2022/04/02 10:17:28;;;;;;;2.90;1.70;;;8.00;99.90;;;;;;5070100;28;20298;-78
2022/04/02 10:19:55;;;;;;;2.07;1.47;;;8.30;99.90;;;;;;5055813;28;20207;-78
2022/04/02 10:22:44;;;;;;;2.60;1.87;;;8.30;99.90;;;;;;5070355;28;20217;-77
2022/04/02 10:25:11;;;;;;;5.37;1.83;;;8.30;99.90;;;;;;5070419;28;20248;-77
2022/04/02 10:27:39;;;;;;;2.23;1.50;;;8.30;99.90;;;;;;5069538;28;20209;-77
2022/04/02 10:30:13;;;;;;;6.23;1.90;;;8.50;99.90;;;;;;5072991;28;20175;-78
2022/04/02 10:32:54;;;;;;;2.40;1.67;;;7.80;99.90;;;;;;5074177;28;20288;-77
2022/04/02 10:35:21;;;;;;;3.13;1.83;;;7.50;99.90;;;;;;5072921;28;20595;-77
2022/04/02 10:38:07;;;;;;;2.53;2.10;;;7.70;99.90;;;;;;5073806;28;20218;-77
2022/04/02 10:40:54;;;;;;;4.57;1.90;;;7.50;99.90;;;;;;5074006;28;20695;-77
2022/04/02 10:43:27;;;;;;;5.43;2.00;;;7.50;99.90;;;;;;5073482;28;20206;-78
2022/04/02 10:45:53;;;;;;;2.43;1.70;;;7.40;99.90;;;;;;5059467;28;20205;-77
2022/04/02 10:48:36;;;;;;;2.57;1.60;;;7.60;99.90;;;;;;5064538;28;20188;-78
2022/04/02 10:51:02;;;;;;;6.63;2.20;;;7.60;99.90;;;;;;5042129;28;20959;-77
2022/04/02 10:53:31;;;;;;;2.53;1.83;;;7.30;99.90;;;;;;5069375;28;20302;-77
2022/04/02 10:56:01;;;;;;;4.47;1.80;;;7.70;99.90;;;;;;5072420;28;20215;-77
2022/04/02 10:58:37;;;;;;;8.43;3.73;;;8.20;99.90;;;;;;5072935;28;20280;-77
2022/04/02 11:01:06;;;;;;;3.63;2.37;;;8.40;99.90;;;;;;5073762;28;20210;-77
2022/04/02 11:03:42;;;;;;;3.40;2.10;;;8.60;99.90;;;;;;5072471;28;20692;-78
2022/04/02 11:06:08;;;;;;;3.87;2.40;;;8.90;99.90;;;;;;5073996;28;20220;-78
2022/04/02 11:08:34;;;;;;;8.67;3.67;;;9.10;99.90;;;;;;5072868;28;20272;-78
2022/04/02 11:11:17;;;;;;;6.23;2.87;;;9.10;99.90;;;;;;5073516;28;20215;-77
2022/04/02 11:13:43;;;;;;;5.93;2.87;;;9.00;99.70;;;;;;5073203;28;20241;-77
2022/04/02 11:16:23;;;;;;;9.63;3.33;;;8.90;99.90;;;;;;5072973;28;20227;-78
2022/04/02 11:22:07;;;;;;;10.87;2.50;;;8.80;99.90;;;;;;5025086;28;20205;-79
2022/04/02 11:24:57;;;;;;;3.90;1.87;;;8.70;99.90;;;;;;5057609;28;20183;-77
2022/04/02 11:27:24;;;;;;;3.13;1.63;;;8.60;99.70;;;;;;5051979;28;20219;-78
2022/04/02 11:29:51;;;;;;;3.57;2.10;;;8.40;99.80;;;;;;5052700;28;20228;-78
2022/04/02 11:32:27;;;;;;;3.67;1.73;;;8.20;99.90;;;;;;5066984;28;20210;-78
2022/04/02 11:34:53;;;;;;;7.03;2.40;;;8.30;99.90;;;;;;5072966;28;20233;-78
2022/04/02 11:37:31;;;;;;;4.23;1.77;;;8.10;99.90;;;;;;5071504;28;20226;-78
2022/04/02 11:40:04;;;;;;;8.07;3.50;;;7.90;99.90;;;;;;5069707;28;20222;-78
2022/04/02 11:42:34;;;;;;;4.63;2.03;;;7.80;99.90;;;;;;5072029;28;20651;-77
2022/04/02 11:45:07;;;;;;;4.10;2.40;;;7.70;99.90;;;;;;5071449;28;20207;-78
2022/04/02 11:47:37;;;;;;;4.67;2.13;;;7.40;99.90;;;;;;5069941;28;20231;-77
2022/04/02 11:50:06;;;;;;;3.07;1.53;;;7.30;99.90;;;;;;5066217;28;20214;-78
2022/04/02 11:52:52;;;;;;;3.37;2.23;;;7.30;99.90;;;;;;5072998;28;20297;-78
2022/04/02 11:55:18;;;;;;;3.80;1.70;;;7.50;99.90;;;;;;5071627;28;20589;-78
2022/04/02 11:57:59;;;;;;;7.77;2.80;;;7.70;99.90;;;;;;5070787;28;20194;-78
2022/04/02 12:00:29;;;;;;;5.07;2.43;;;8.00;99.90;;;;;;5071655;28;20553;-76
2022/04/02 12:02:54;;;;;;;20.97;11.53;;;8.10;99.90;;;;;;5072465;28;20285;-77
2022/04/02 12:05:20;;;;;;;2.53;1.67;;;8.20;99.90;;;;;;5072504;28;20214;-79
2022/04/02 12:07:52;;;;;;;7.57;2.20;;;7.90;99.90;;;;;;5070670;28;20260;-78
2022/04/02 12:10:23;;;;;;;8.37;4.83;;;8.10;99.90;;;;;;5070561;28;20218;-77
2022/04/02 12:12:51;;;;;;;8.30;4.80;;;7.80;99.90;;;;;;5071126;28;20179;-78
2022/04/02 12:15:17;;;;;;;5.97;2.30;;;7.70;99.90;;;;;;5071405;28;20225;-78
2022/04/02 12:17:52;;;;;;;5.87;1.97;;;7.40;99.90;;;;;;5067318;28;21188;-78
2022/04/02 12:20:33;;;;;;;4.00;1.70;;;7.20;99.90;;;;;;5068179;28;20581;-79
2022/04/02 12:23:12;;;;;;;5.70;2.37;;;7.00;99.90;;;;;;5070764;28;20207;-79
2022/04/02 12:25:39;;;;;;;4.03;2.47;;;6.70;99.90;;;;;;5070516;28;20225;-78
2022/04/02 12:28:13;;;;;;;6.30;2.10;;;6.70;99.90;;;;;;5071452;28;20221;-78
2022/04/02 12:30:42;;;;;;;3.77;2.23;;;6.50;99.90;;;;;;5072042;28;20218;-77
2022/04/02 12:33:11;;;;;;;5.33;1.80;;;6.50;99.90;;;;;;5071030;28;20183;-78
2022/04/02 12:35:37;;;;;;;3.50;1.70;;;6.20;99.90;;;;;;5070536;28;20630;-78
2022/04/02 12:38:05;;;;;;;5.50;2.00;;;6.40;99.90;;;;;;5071476;28;20308;-78
2022/04/02 12:40:38;;;;;;;3.50;1.73;;;6.50;99.90;;;;;;5070686;28;20239;-78
2022/04/02 12:43:10;;;;;;;2.37;1.93;;;6.70;99.90;;;;;;5072150;28;20293;-79
2022/04/02 12:45:37;;;;;;;4.33;2.30;;;6.90;99.90;;;;;;5072009;28;20199;-78
2022/04/02 12:48:09;;;;;;;5.17;1.77;;;7.20;99.90;;;;;;5045619;28;20215;-78
2022/04/02 12:50:48;;;;;;;4.23;1.77;;;7.10;99.90;;;;;;5049183;28;20559;-79
2022/04/02 12:53:34;;;;;;;5.33;2.30;;;7.30;99.90;;;;;;5051713;28;20214;-78
2022/04/02 12:56:05;;;;;;;3.77;2.10;;;7.30;99.90;;;;;;5051535;28;20227;-78
2022/04/02 12:58:39;;;;;;;2.90;1.33;;;7.20;99.90;;;;;;5050405;28;20230;-79
2022/04/02 13:01:13;;;;;;;3.57;1.83;;;7.30;99.90;;;;;;5050141;28;20211;-78
2022/04/02 13:03:43;;;;;;;5.63;1.90;;;7.20;99.90;;;;;;5051162;28;20270;-78
2022/04/02 13:06:20;;;;;;;4.67;1.47;;;7.00;99.90;;;;;;5051784;28;20230;-78
2022/04/02 13:08:58;;;;;;;6.07;2.40;;;6.80;99.90;;;;;;5049287;28;20207;-78
2022/04/02 13:11:35;;;;;;;4.93;2.20;;;6.50;99.90;;;;;;5050067;28;20215;-77
2022/04/02 13:14:17;;;;;;;4.77;1.80;;;6.50;99.90;;;;;;5051524;28;20729;-78
2022/04/02 13:16:44;;;;;;;5.70;3.13;;;6.40;99.90;;;;;;5049555;28;20211;-78